sensor_id;sensor_type;location;lat;lon;timestamp;pressure;altitude;pressure_sealevel;temperature;humidity
86602;BME280;77266;52.284;20.890;2024-03-23T00:53:43;99565.50;;;18.59;45.49
86602;BME280;77266;52.284;20.890;2024-03-23T00:56:21;99561.27;;;18.59;45.55
86602;BME280;77266;52.284;20.890;2024-03-23T00:58:52;99557.76;;;18.58;45.56
86602;BME280;77266;52.284;20.890;2024-03-23T01:01:25;99551.48;;;18.59;45.65
86602;BME280;77266;52.284;20.890;2024-03-23T01:03:56;99547.66;;;18.58;45.50
86602;BME280;77266;52.284;20.890;2024-03-23T01:06:26;99551.64;;;18.57;45.39
86602;BME280;77266;52.284;20.890;2024-03-23T01:09:01;99551.45;;;18.56;45.53
86602;BME280;77266;52.284;20.890;2024-03-23T01:11:34;99549.48;;;18.55;45.40
86602;BME280;77266;52.284;20.890;2024-03-23T01:14:06;99546.11;;;18.53;45.54
86602;BME280;77266;52.284;20.890;2024-03-23T01:16:43;99540.19;;;18.53;45.46
86602;BME280;77266;52.284;20.890;2024-03-23T01:19:19;99536.92;;;18.55;45.50
86602;BME280;77266;52.284;20.890;2024-03-23T01:21:59;99537.97;;;18.53;45.31
86602;BME280;77266;52.284;20.890;2024-03-23T01:24:31;99541.17;;;18.55;45.24
86602;BME280;77266;52.284;20.890;2024-03-23T01:27:06;99534.11;;;18.52;45.45
86602;BME280;77266;52.284;20.890;2024-03-23T01:29:36;99535.43;;;18.52;45.26
86602;BME280;77266;52.284;20.890;2024-03-23T01:32:09;99539.03;;;18.51;45.46
86602;BME280;77266;52.284;20.890;2024-03-23T01:34:46;99542.41;;;18.52;45.44
86602;BME280;77266;52.284;20.890;2024-03-23T01:37:22;99545.91;;;18.51;45.39
86602;BME280;77266;52.284;20.890;2024-03-23T01:39:57;99535.80;;;18.51;45.44
86602;BME280;77266;52.284;20.890;2024-03-23T01:42:29;99536.88;;;18.50;45.49
86602;BME280;77266;52.284;20.890;2024-03-23T01:45:00;99529.20;;;18.50;45.33
86602;BME280;77266;52.284;20.890;2024-03-23T01:47:32;99525.02;;;18.50;45.21
86602;BME280;77266;52.284;20.890;2024-03-23T01:50:08;99506.40;;;18.50;45.30
86602;BME280;77266;52.284;20.890;2024-03-23T01:52:41;99509.35;;;18.50;45.25
86602;BME280;77266;52.284;20.890;2024-03-23T01:55:12;99517.15;;;18.49;45.34
86602;BME280;77266;52.284;20.890;2024-03-23T01:57:43;99525.27;;;18.48;45.34
86602;BME280;77266;52.284;20.890;2024-03-23T02:00:15;99524.86;;;18.48;45.38
86602;BME280;77266;52.284;20.890;2024-03-23T02:02:46;99520.60;;;18.47;45.13
86602;BME280;77266;52.284;20.890;2024-03-23T02:05:18;99511.70;;;18.49;45.36
86602;BME280;77266;52.284;20.890;2024-03-23T02:07:51;99508.12;;;18.47;45.40
86602;BME280;77266;52.284;20.890;2024-03-23T02:10:27;99515.09;;;18.47;45.18
86602;BME280;77266;52.284;20.890;2024-03-23T02:13:00;99508.42;;;18.46;45.27
86602;BME280;77266;52.284;20.890;2024-03-23T02:15:30;99505.88;;;18.45;45.43
86602;BME280;77266;52.284;20.890;2024-03-23T02:18:04;99509.36;;;18.46;45.34
86602;BME280;77266;52.284;20.890;2024-03-23T02:20:35;99502.45;;;18.47;45.23
86602;BME280;77266;52.284;20.890;2024-03-23T02:23:05;99497.98;;;18.46;45.37
86602;BME280;77266;52.284;20.890;2024-03-23T02:25:37;99499.15;;;18.45;45.38
86602;BME280;77266;52.284;20.890;2024-03-23T02:28:09;99496.02;;;18.45;45.21
86602;BME280;77266;52.284;20.890;2024-03-23T02:30:40;99495.68;;;18.44;45.30
86602;BME280;77266;52.284;20.890;2024-03-23T02:33:12;99493.89;;;18.44;45.32
86602;BME280;77266;52.284;20.890;2024-03-23T02:35:48;99493.59;;;18.43;45.60
86602;BME280;77266;52.284;20.890;2024-03-23T02:38:21;99489.16;;;18.42;45.53
86602;BME280;77266;52.284;20.890;2024-03-23T02:41:00;99490.92;;;18.42;45.41
86602;BME280;77266;52.284;20.890;2024-03-23T02:43:31;99490.58;;;18.42;45.51
86602;BME280;77266;52.284;20.890;2024-03-23T02:46:04;99487.45;;;18.42;45.48
86602;BME280;77266;52.284;20.890;2024-03-23T02:48:40;99480.79;;;18.42;45.43
86602;BME280;77266;52.284;20.890;2024-03-23T02:51:12;99477.30;;;18.39;45.56
86602;BME280;77266;52.284;20.890;2024-03-23T02:53:45;99473.08;;;18.39;45.59
86602;BME280;77266;52.284;20.890;2024-03-23T02:56:17;99469.74;;;18.39;45.63
86602;BME280;77266;52.284;20.890;2024-03-23T02:58:52;99471.20;;;18.39;45.46
86602;BME280;77266;52.284;20.890;2024-03-23T03:01:23;99468.52;;;18.39;45.61
86602;BME280;77266;52.284;20.890;2024-03-23T03:03:58;99467.77;;;18.37;45.80
86602;BME280;77266;52.284;20.890;2024-03-23T03:06:31;99462.38;;;18.37;45.88
86602;BME280;77266;52.284;20.890;2024-03-23T03:09:02;99462.80;;;18.39;45.87
86602;BME280;77266;52.284;20.890;2024-03-23T03:11:33;99462.06;;;18.40;45.81
86602;BME280;77266;52.284;20.890;2024-03-23T03:14:06;99457.58;;;18.38;46.08
86602;BME280;77266;52.284;20.890;2024-03-23T03:16:40;99455.95;;;18.39;46.12
86602;BME280;77266;52.284;20.890;2024-03-23T03:19:11;99457.39;;;18.39;45.94
86602;BME280;77266;52.284;20.890;2024-03-23T03:21:41;99453.34;;;18.39;45.96
86602;BME280;77266;52.284;20.890;2024-03-23T03:24:12;99455.27;;;18.36;46.13
86602;BME280;77266;52.284;20.890;2024-03-23T03:26:48;99454.48;;;18.38;45.93
86602;BME280;77266;52.284;20.890;2024-03-23T03:29:19;99459.17;;;18.37;45.94
86602;BME280;77266;52.284;20.890;2024-03-23T03:31:49;99454.11;;;18.36;46.05
86602;BME280;77266;52.284;20.890;2024-03-23T03:34:22;99460.36;;;18.38;45.83
86602;BME280;77266;52.284;20.890;2024-03-23T03:36:57;99460.14;;;18.36;46.04
86602;BME280;77266;52.284;20.890;2024-03-23T03:39:31;99459.29;;;18.38;45.94
86602;BME280;77266;52.284;20.890;2024-03-23T03:42:06;99463.48;;;18.37;46.14
86602;BME280;77266;52.284;20.890;2024-03-23T03:44:38;99461.13;;;18.35;46.11
86602;BME280;77266;52.284;20.890;2024-03-23T03:47:09;99457.69;;;18.35;45.91
86602;BME280;77266;52.284;20.890;2024-03-23T03:49:40;99454.80;;;18.33;46.15
86602;BME280;77266;52.284;20.890;2024-03-23T03:52:13;99452.20;;;18.33;46.20
86602;BME280;77266;52.284;20.890;2024-03-23T03:54:46;99450.72;;;18.33;46.10
86602;BME280;77266;52.284;20.890;2024-03-23T03:57:17;99450.09;;;18.35;46.02
86602;BME280;77266;52.284;20.890;2024-03-23T03:59:53;99451.89;;;18.34;46.10
86602;BME280;77266;52.284;20.890;2024-03-23T04:02:27;99446.49;;;18.33;46.16
86602;BME280;77266;52.284;20.890;2024-03-23T04:04:58;99448.76;;;18.33;46.14
86602;BME280;77266;52.284;20.890;2024-03-23T04:07:32;99441.61;;;18.33;46.04
86602;BME280;77266;52.284;20.890;2024-03-23T04:10:05;99436.84;;;18.29;46.48
86602;BME280;77266;52.284;20.890;2024-03-23T04:12:41;99432.60;;;18.31;46.77
86602;BME280;77266;52.284;20.890;2024-03-23T04:15:14;99439.84;;;18.31;46.78
86602;BME280;77266;52.284;20.890;2024-03-23T04:17:47;99436.85;;;18.31;46.86
86602;BME280;77266;52.284;20.890;2024-03-23T04:20:23;99428.11;;;18.32;46.96
86602;BME280;77266;52.284;20.890;2024-03-23T04:22:53;99422.02;;;18.31;47.10
86602;BME280;77266;52.284;20.890;2024-03-23T04:25:24;99419.41;;;18.33;47.02
86602;BME280;77266;52.284;20.890;2024-03-23T04:27:55;99420.05;;;18.35;47.09
86602;BME280;77266;52.284;20.890;2024-03-23T04:30:27;99411.88;;;18.34;46.99
86602;BME280;77266;52.284;20.890;2024-03-23T04:32:59;99406.73;;;18.34;46.97
86602;BME280;77266;52.284;20.890;2024-03-23T04:35:30;99402.92;;;18.32;47.12
86602;BME280;77266;52.284;20.890;2024-03-23T04:38:00;99411.18;;;18.32;47.16
86602;BME280;77266;52.284;20.890;2024-03-23T04:40:34;99413.34;;;18.34;47.07
86602;BME280;77266;52.284;20.890;2024-03-23T04:43:08;99410.03;;;18.33;47.48
86602;BME280;77266;52.284;20.890;2024-03-23T04:45:39;99401.48;;;18.32;47.31
86602;BME280;77266;52.284;20.890;2024-03-23T04:48:12;99402.98;;;18.32;47.47
86602;BME280;77266;52.284;20.890;2024-03-23T04:50:48;99401.06;;;18.31;47.53
86602;BME280;77266;52.284;20.890;2024-03-23T04:53:19;99394.94;;;18.34;47.56
86602;BME280;77266;52.284;20.890;2024-03-23T04:55:52;99389.28;;;18.35;47.16
86602;BME280;77266;52.284;20.890;2024-03-23T04:58:24;99381.58;;;18.40;47.23
86602;BME280;77266;52.284;20.890;2024-03-23T05:00:56;99380.91;;;18.46;47.22
86602;BME280;77266;52.284;20.890;2024-03-23T05:03:29;99379.38;;;18.50;46.93
86602;BME280;77266;52.284;20.890;2024-03-23T05:06:05;99374.86;;;18.59;46.91
86602;BME280;77266;52.284;20.890;2024-03-23T05:08:39;99378.83;;;18.68;46.58
86602;BME280;77266;52.284;20.890;2024-03-23T05:11:12;99383.25;;;18.75;46.43
86602;BME280;77266;52.284;20.890;2024-03-23T05:13:45;99387.97;;;18.83;46.08
86602;BME280;77266;52.284;20.890;2024-03-23T05:16:16;99390.01;;;18.89;46.06
86602;BME280;77266;52.284;20.890;2024-03-23T05:18:49;99395.14;;;18.95;45.98
86602;BME280;77266;52.284;20.890;2024-03-23T05:21:19;99393.25;;;19.04;45.74
86602;BME280;77266;52.284;20.890;2024-03-23T05:23:50;99388.75;;;19.10;45.65
86602;BME280;77266;52.284;20.890;2024-03-23T05:26:25;99383.16;;;19.16;45.51
86602;BME280;77266;52.284;20.890;2024-03-23T05:28:56;99385.86;;;19.23;45.35
86602;BME280;77266;52.284;20.890;2024-03-23T05:31:27;99382.02;;;19.29;45.24
86602;BME280;77266;52.284;20.890;2024-03-23T05:33:59;99380.52;;;19.34;45.25
86602;BME280;77266;52.284;20.890;2024-03-23T05:36:33;99375.60;;;19.40;45.17
86602;BME280;77266;52.284;20.890;2024-03-23T05:39:04;99376.93;;;19.46;45.14
86602;BME280;77266;52.284;20.890;2024-03-23T05:41:35;99372.28;;;19.49;45.12
86602;BME280;77266;52.284;20.890;2024-03-23T05:44:07;99368.73;;;19.53;44.95
86602;BME280;77266;52.284;20.890;2024-03-23T05:46:42;99367.64;;;19.56;44.99
86602;BME280;77266;52.284;20.890;2024-03-23T05:49:19;99363.14;;;19.56;45.07
86602;BME280;77266;52.284;20.890;2024-03-23T05:51:57;99356.35;;;19.58;45.07
86602;BME280;77266;52.284;20.890;2024-03-23T05:54:27;99360.31;;;19.62;45.03
86602;BME280;77266;52.284;20.890;2024-03-23T05:57:04;99356.65;;;19.66;45.05
86602;BME280;77266;52.284;20.890;2024-03-23T05:59:39;99359.58;;;19.71;44.97
86602;BME280;77266;52.284;20.890;2024-03-23T06:02:17;99357.11;;;19.76;44.84
86602;BME280;77266;52.284;20.890;2024-03-23T06:04:47;99348.66;;;19.79;44.87
86602;BME280;77266;52.284;20.890;2024-03-23T06:07:18;99354.83;;;19.83;44.62
86602;BME280;77266;52.284;20.890;2024-03-23T06:09:49;99356.30;;;19.88;44.62
86602;BME280;77266;52.284;20.890;2024-03-23T06:12:21;99353.83;;;19.93;44.56
86602;BME280;77266;52.284;20.890;2024-03-23T06:14:53;99354.29;;;19.97;44.36
86602;BME280;77266;52.284;20.890;2024-03-23T06:17:26;99355.71;;;19.99;44.42
86602;BME280;77266;52.284;20.890;2024-03-23T06:19:56;99361.42;;;20.01;44.31
86602;BME280;77266;52.284;20.890;2024-03-23T06:22:26;99354.59;;;20.05;44.25
86602;BME280;77266;52.284;20.890;2024-03-23T06:24:58;99352.14;;;20.07;44.20
86602;BME280;77266;52.284;20.890;2024-03-23T06:27:36;99347.40;;;20.11;44.29
86602;BME280;77266;52.284;20.890;2024-03-23T06:30:12;99345.29;;;20.11;44.40
86602;BME280;77266;52.284;20.890;2024-03-23T06:32:43;99343.95;;;20.14;44.14
86602;BME280;77266;52.284;20.890;2024-03-23T06:35:14;99342.93;;;20.16;44.23
86602;BME280;77266;52.284;20.890;2024-03-23T06:37:52;99340.63;;;20.18;44.21
86602;BME280;77266;52.284;20.890;2024-03-23T06:40:24;99336.50;;;20.21;44.05
86602;BME280;77266;52.284;20.890;2024-03-23T06:42:56;99334.34;;;20.23;44.12
86602;BME280;77266;52.284;20.890;2024-03-23T06:45:34;99330.90;;;20.24;44.09
86602;BME280;77266;52.284;20.890;2024-03-23T06:48:07;99325.70;;;20.27;44.06
86602;BME280;77266;52.284;20.890;2024-03-23T06:50:44;99322.65;;;20.29;44.23
86602;BME280;77266;52.284;20.890;2024-03-23T06:53:23;99319.95;;;20.31;43.97
86602;BME280;77266;52.284;20.890;2024-03-23T06:55:59;99312.42;;;20.34;44.01
86602;BME280;77266;52.284;20.890;2024-03-23T06:58:33;99316.95;;;20.35;43.95
86602;BME280;77266;52.284;20.890;2024-03-23T07:01:08;99318.09;;;20.37;43.92
86602;BME280;77266;52.284;20.890;2024-03-23T07:03:40;99312.16;;;20.39;43.86
86602;BME280;77266;52.284;20.890;2024-03-23T07:06:13;99311.35;;;20.40;43.95
86602;BME280;77266;52.284;20.890;2024-03-23T07:08:48;99316.64;;;20.41;43.89
86602;BME280;77266;52.284;20.890;2024-03-23T07:11:24;99315.75;;;20.40;43.94
86602;BME280;77266;52.284;20.890;2024-03-23T07:13:56;99305.61;;;20.43;43.95
86602;BME280;77266;52.284;20.890;2024-03-23T07:16:29;99302.27;;;20.46;43.89
86602;BME280;77266;52.284;20.890;2024-03-23T07:19:00;99301.27;;;20.47;43.86
86602;BME280;77266;52.284;20.890;2024-03-23T07:21:33;99297.17;;;20.48;43.84
86602;BME280;77266;52.284;20.890;2024-03-23T07:24:07;99299.40;;;20.48;43.88
86602;BME280;77266;52.284;20.890;2024-03-23T07:26:40;99298.95;;;20.48;43.70
86602;BME280;77266;52.284;20.890;2024-03-23T07:29:12;99296.21;;;20.50;43.82
86602;BME280;77266;52.284;20.890;2024-03-23T07:31:43;99298.35;;;20.52;43.74
86602;BME280;77266;52.284;20.890;2024-03-23T07:34:16;99302.13;;;20.53;43.76
86602;BME280;77266;52.284;20.890;2024-03-23T07:36:46;99299.76;;;20.53;43.73
86602;BME280;77266;52.284;20.890;2024-03-23T07:39:23;99292.09;;;20.54;43.74
86602;BME280;77266;52.284;20.890;2024-03-23T07:42:00;99290.95;;;20.55;43.78
86602;BME280;77266;52.284;20.890;2024-03-23T07:44:30;99288.95;;;20.56;43.67
86602;BME280;77266;52.284;20.890;2024-03-23T07:47:02;99282.90;;;20.57;43.74
86602;BME280;77266;52.284;20.890;2024-03-23T07:49:35;99281.00;;;20.56;43.77
86602;BME280;77266;52.284;20.890;2024-03-23T07:52:14;99270.85;;;20.57;43.74
86602;BME280;77266;52.284;20.890;2024-03-23T07:54:44;99264.64;;;20.58;43.63
86602;BME280;77266;52.284;20.890;2024-03-23T07:57:20;99267.05;;;20.60;43.64
86602;BME280;77266;52.284;20.890;2024-03-23T07:59:56;99264.20;;;20.59;43.55
86602;BME280;77266;52.284;20.890;2024-03-23T08:02:26;99257.13;;;20.58;43.57
86602;BME280;77266;52.284;20.890;2024-03-23T08:04:58;99258.65;;;20.55;43.56
86602;BME280;77266;52.284;20.890;2024-03-23T08:07:29;99255.95;;;20.53;43.74
86602;BME280;77266;52.284;20.890;2024-03-23T08:10:06;99257.23;;;20.50;43.71
86602;BME280;77266;52.284;20.890;2024-03-23T08:12:38;99250.80;;;20.46;43.94
86602;BME280;77266;52.284;20.890;2024-03-23T08:15:11;99255.48;;;20.42;44.10
86602;BME280;77266;52.284;20.890;2024-03-23T08:17:42;99248.38;;;20.39;44.20
86602;BME280;77266;52.284;20.890;2024-03-23T08:20:13;99244.36;;;20.38;44.24
86602;BME280;77266;52.284;20.890;2024-03-23T08:22:43;99243.02;;;20.37;44.52
86602;BME280;77266;52.284;20.890;2024-03-23T08:25:15;99240.17;;;20.36;44.44
86602;BME280;77266;52.284;20.890;2024-03-23T08:27:47;99237.56;;;20.36;44.50
86602;BME280;77266;52.284;20.890;2024-03-23T08:30:21;99224.64;;;20.34;44.55
86602;BME280;77266;52.284;20.890;2024-03-23T08:32:51;99210.44;;;20.32;44.77
86602;BME280;77266;52.284;20.890;2024-03-23T08:35:23;99205.79;;;20.41;44.55
86602;BME280;77266;52.284;20.890;2024-03-23T08:37:56;99202.95;;;20.47;44.33
86602;BME280;77266;52.284;20.890;2024-03-23T08:40:26;99200.55;;;20.54;44.32
86602;BME280;77266;52.284;20.890;2024-03-23T08:42:58;99194.63;;;20.62;43.98
86602;BME280;77266;52.284;20.890;2024-03-23T08:45:29;99196.91;;;20.69;43.94
86602;BME280;77266;52.284;20.890;2024-03-23T08:48:00;99186.77;;;20.70;44.10
86602;BME280;77266;52.284;20.890;2024-03-23T08:50:31;99186.66;;;20.68;44.17
86602;BME280;77266;52.284;20.890;2024-03-23T08:53:03;99181.06;;;20.69;45.41
86602;BME280;77266;52.284;20.890;2024-03-23T08:55:34;99178.84;;;20.62;45.26
86602;BME280;77266;52.284;20.890;2024-03-23T08:58:08;99173.69;;;20.63;45.44
86602;BME280;77266;52.284;20.890;2024-03-23T09:00:39;99165.08;;;20.67;46.08
86602;BME280;77266;52.284;20.890;2024-03-23T09:03:10;99163.83;;;20.73;46.15
86602;BME280;77266;52.284;20.890;2024-03-23T09:05:41;99156.55;;;20.75;46.02
86602;BME280;77266;52.284;20.890;2024-03-23T09:08:13;99156.27;;;20.80;45.91
86602;BME280;77266;52.284;20.890;2024-03-23T09:10:44;99146.70;;;20.84;45.76
86602;BME280;77266;52.284;20.890;2024-03-23T09:13:14;99146.31;;;20.90;45.59
86602;BME280;77266;52.284;20.890;2024-03-23T09:15:51;99138.42;;;20.85;45.55
86602;BME280;77266;52.284;20.890;2024-03-23T09:18:26;99126.00;;;20.88;45.12
86602;BME280;77266;52.284;20.890;2024-03-23T09:20:57;99129.12;;;20.88;44.84
86602;BME280;77266;52.284;20.890;2024-03-23T09:23:29;99120.83;;;20.82;45.10
86602;BME280;77266;52.284;20.890;2024-03-23T09:26:04;99116.17;;;20.79;46.01
86602;BME280;77266;52.284;20.890;2024-03-23T09:28:38;99113.73;;;20.78;45.74
86602;BME280;77266;52.284;20.890;2024-03-23T09:31:09;99117.16;;;20.77;46.04
86602;BME280;77266;52.284;20.890;2024-03-23T09:33:43;99115.91;;;20.67;46.47
86602;BME280;77266;52.284;20.890;2024-03-23T09:36:14;99110.45;;;20.69;45.68
86602;BME280;77266;52.284;20.890;2024-03-23T09:38:48;99109.89;;;20.72;45.68
86602;BME280;77266;52.284;20.890;2024-03-23T09:41:20;99110.62;;;20.64;45.80
86602;BME280;77266;52.284;20.890;2024-03-23T09:43:55;99103.06;;;20.66;45.55
86602;BME280;77266;52.284;20.890;2024-03-23T09:46:25;99097.36;;;20.62;45.79
86602;BME280;77266;52.284;20.890;2024-03-23T09:48:59;99090.05;;;20.60;46.17
86602;BME280;77266;52.284;20.890;2024-03-23T09:51:31;99084.05;;;20.59;46.41
86602;BME280;77266;52.284;20.890;2024-03-23T09:54:02;99081.87;;;20.65;46.34
86602;BME280;77266;52.284;20.890;2024-03-23T09:56:33;99074.43;;;20.69;46.27
86602;BME280;77266;52.284;20.890;2024-03-23T09:59:07;99064.13;;;20.68;46.34
86602;BME280;77266;52.284;20.890;2024-03-23T10:01:37;99061.04;;;20.69;45.67
86602;BME280;77266;52.284;20.890;2024-03-23T10:04:11;99050.80;;;20.74;45.60
86602;BME280;77266;52.284;20.890;2024-03-23T10:06:42;99036.01;;;20.73;45.50
86602;BME280;77266;52.284;20.890;2024-03-23T10:09:19;99022.30;;;20.76;45.30
86602;BME280;77266;52.284;20.890;2024-03-23T10:11:51;99013.73;;;20.83;45.00
86602;BME280;77266;52.284;20.890;2024-03-23T10:14:30;99004.98;;;20.81;45.00
86602;BME280;77266;52.284;20.890;2024-03-23T10:17:01;99001.39;;;20.82;44.82
86602;BME280;77266;52.284;20.890;2024-03-23T10:19:42;98996.05;;;20.84;44.64
86602;BME280;77266;52.284;20.890;2024-03-23T10:22:17;98991.77;;;20.84;44.47
86602;BME280;77266;52.284;20.890;2024-03-23T10:24:53;98984.33;;;20.84;44.50
86602;BME280;77266;52.284;20.890;2024-03-23T10:27:40;98974.14;;;20.81;44.67
86602;BME280;77266;52.284;20.890;2024-03-23T10:30:12;98972.52;;;20.82;44.54
86602;BME280;77266;52.284;20.890;2024-03-23T10:32:44;98964.39;;;20.86;44.52
86602;BME280;77266;52.284;20.890;2024-03-23T10:35:20;98963.02;;;20.83;44.66
86602;BME280;77266;52.284;20.890;2024-03-23T10:37:54;98957.30;;;20.81;44.67
86602;BME280;77266;52.284;20.890;2024-03-23T10:40:28;98948.52;;;20.83;44.60
86602;BME280;77266;52.284;20.890;2024-03-23T10:43:00;98947.61;;;20.88;44.49
86602;BME280;77266;52.284;20.890;2024-03-23T10:45:30;98945.30;;;20.86;44.57
86602;BME280;77266;52.284;20.890;2024-03-23T10:48:05;98937.95;;;20.90;44.33
86602;BME280;77266;52.284;20.890;2024-03-23T10:50:40;98931.20;;;20.90;44.27
86602;BME280;77266;52.284;20.890;2024-03-23T10:53:12;98926.20;;;20.89;44.34
86602;BME280;77266;52.284;20.890;2024-03-23T10:55:45;98919.38;;;20.91;44.42
86602;BME280;77266;52.284;20.890;2024-03-23T10:58:21;98906.91;;;20.90;44.30
86602;BME280;77266;52.284;20.890;2024-03-23T11:00:53;98902.00;;;20.97;44.11
86602;BME280;77266;52.284;20.890;2024-03-23T11:03:35;98892.55;;;20.88;44.25
86602;BME280;77266;52.284;20.890;2024-03-23T11:06:08;98887.39;;;20.91;44.35
86602;BME280;77266;52.284;20.890;2024-03-23T11:08:40;98888.89;;;20.89;44.25
86602;BME280;77266;52.284;20.890;2024-03-23T11:11:19;98890.45;;;20.90;44.27
86602;BME280;77266;52.284;20.890;2024-03-23T11:13:51;98893.13;;;20.91;44.11
86602;BME280;77266;52.284;20.890;2024-03-23T11:16:27;98893.02;;;20.93;44.15
86602;BME280;77266;52.284;20.890;2024-03-23T11:21:56;98891.73;;;21.00;43.97
86602;BME280;77266;52.284;20.890;2024-03-23T11:24:28;98886.64;;;20.94;44.22
86602;BME280;77266;52.284;20.890;2024-03-23T11:26:59;98884.28;;;21.01;43.85
86602;BME280;77266;52.284;20.890;2024-03-23T11:29:33;98875.59;;;20.99;43.93
86602;BME280;77266;52.284;20.890;2024-03-23T11:32:04;98876.19;;;20.96;44.08
86602;BME280;77266;52.284;20.890;2024-03-23T11:34:36;98871.11;;;20.94;44.05
86602;BME280;77266;52.284;20.890;2024-03-23T11:37:10;98867.45;;;20.98;43.96
86602;BME280;77266;52.284;20.890;2024-03-23T11:39:41;98859.60;;;21.02;43.71
86602;BME280;77266;52.284;20.890;2024-03-23T11:42:16;98859.44;;;21.07;43.66
86602;BME280;77266;52.284;20.890;2024-03-23T11:44:49;98851.48;;;20.96;43.85
86602;BME280;77266;52.284;20.890;2024-03-23T11:47:23;98844.93;;;20.97;43.94
86602;BME280;77266;52.284;20.890;2024-03-23T11:49:54;98834.99;;;20.88;43.88
86602;BME280;77266;52.284;20.890;2024-03-23T11:52:25;98831.11;;;20.89;43.99
86602;BME280;77266;52.284;20.890;2024-03-23T11:55:04;98828.23;;;20.92;43.90
86602;BME280;77266;52.284;20.890;2024-03-23T11:57:38;98822.70;;;20.88;44.03
86602;BME280;77266;52.284;20.890;2024-03-23T12:00:23;98818.24;;;20.85;44.01
86602;BME280;77266;52.284;20.890;2024-03-23T12:02:54;98816.45;;;20.82;44.25
86602;BME280;77266;52.284;20.890;2024-03-23T12:05:32;98808.14;;;20.78;44.29
86602;BME280;77266;52.284;20.890;2024-03-23T12:08:16;98802.13;;;20.74;44.27
86602;BME280;77266;52.284;20.890;2024-03-23T12:10:52;98800.05;;;20.73;44.32
86602;BME280;77266;52.284;20.890;2024-03-23T12:13:23;98789.98;;;20.81;44.11
86602;BME280;77266;52.284;20.890;2024-03-23T12:15:55;98787.04;;;20.86;43.99
86602;BME280;77266;52.284;20.890;2024-03-23T12:18:42;98785.48;;;20.80;43.91
86602;BME280;77266;52.284;20.890;2024-03-23T12:21:17;98780.30;;;20.80;44.05
86602;BME280;77266;52.284;20.890;2024-03-23T12:23:48;98773.95;;;20.79;44.03
86602;BME280;77266;52.284;20.890;2024-03-23T12:26:22;98766.10;;;20.76;44.15
86602;BME280;77266;52.284;20.890;2024-03-23T12:28:54;98766.38;;;20.75;44.13
86602;BME280;77266;52.284;20.890;2024-03-23T12:31:26;98767.42;;;20.74;44.07
86602;BME280;77266;52.284;20.890;2024-03-23T12:33:56;98761.25;;;20.71;44.21
86602;BME280;77266;52.284;20.890;2024-03-23T12:36:28;98755.73;;;20.66;44.41
86602;BME280;77266;52.284;20.890;2024-03-23T12:38:58;98752.52;;;20.64;44.32
86602;BME280;77266;52.284;20.890;2024-03-23T12:41:32;98754.27;;;20.61;44.38
86602;BME280;77266;52.284;20.890;2024-03-23T12:44:03;98752.05;;;20.61;44.25
86602;BME280;77266;52.284;20.890;2024-03-23T12:46:33;98742.71;;;20.64;44.38
86602;BME280;77266;52.284;20.890;2024-03-23T12:49:06;98736.10;;;20.63;44.26
86602;BME280;77266;52.284;20.890;2024-03-23T12:51:36;98726.74;;;20.58;44.40
86602;BME280;77266;52.284;20.890;2024-03-23T12:54:06;98722.89;;;20.57;44.42
86602;BME280;77266;52.284;20.890;2024-03-23T12:56:38;98718.98;;;20.60;44.24
86602;BME280;77266;52.284;20.890;2024-03-23T12:59:11;98712.23;;;20.59;44.34
86602;BME280;77266;52.284;20.890;2024-03-23T13:01:44;98706.44;;;20.54;44.31
86602;BME280;77266;52.284;20.890;2024-03-23T13:04:20;98699.09;;;20.51;44.37
86602;BME280;77266;52.284;20.890;2024-03-23T13:06:56;98690.24;;;20.48;44.44
86602;BME280;77266;52.284;20.890;2024-03-23T13:09:28;98687.62;;;20.46;44.41
86602;BME280;77266;52.284;20.890;2024-03-23T13:11:58;98679.73;;;20.45;44.45
86602;BME280;77266;52.284;20.890;2024-03-23T13:14:31;98675.30;;;20.48;44.59
86602;BME280;77266;52.284;20.890;2024-03-23T13:17:05;98671.29;;;20.49;44.46
86602;BME280;77266;52.284;20.890;2024-03-23T13:19:40;98668.44;;;20.44;44.64
86602;BME280;77266;52.284;20.890;2024-03-23T13:22:11;98671.86;;;20.38;44.76
86602;BME280;77266;52.284;20.890;2024-03-23T13:24:43;98669.69;;;20.38;44.71
86602;BME280;77266;52.284;20.890;2024-03-23T13:27:17;98662.91;;;20.35;44.85
86602;BME280;77266;52.284;20.890;2024-03-23T13:29:51;98656.06;;;20.34;44.78
86602;BME280;77266;52.284;20.890;2024-03-23T13:32:23;98644.89;;;20.32;44.75
86602;BME280;77266;52.284;20.890;2024-03-23T13:34:56;98630.56;;;20.33;44.47
86602;BME280;77266;52.284;20.890;2024-03-23T13:37:30;98630.67;;;20.35;44.47
86602;BME280;77266;52.284;20.890;2024-03-23T13:40:02;98622.33;;;20.32;44.54
86602;BME280;77266;52.284;20.890;2024-03-23T13:42:33;98612.84;;;20.33;44.42
86602;BME280;77266;52.284;20.890;2024-03-23T13:45:05;98614.67;;;20.33;44.45
86602;BME280;77266;52.284;20.890;2024-03-23T13:47:36;98610.27;;;20.31;44.72
86602;BME280;77266;52.284;20.890;2024-03-23T13:50:09;98609.21;;;20.29;44.62
86602;BME280;77266;52.284;20.890;2024-03-23T13:52:42;98602.83;;;20.27;44.93
86602;BME280;77266;52.284;20.890;2024-03-23T13:55:13;98603.59;;;20.25;44.89
86602;BME280;77266;52.284;20.890;2024-03-23T13:57:49;98599.86;;;20.23;45.19
86602;BME280;77266;52.284;20.890;2024-03-23T14:00:24;98607.30;;;20.22;45.14
86602;BME280;77266;52.284;20.890;2024-03-23T14:02:56;98602.26;;;20.25;45.10
86602;BME280;77266;52.284;20.890;2024-03-23T14:05:29;98596.77;;;20.26;45.20
86602;BME280;77266;52.284;20.890;2024-03-23T14:07:59;98581.98;;;20.26;45.46
86602;BME280;77266;52.284;20.890;2024-03-23T14:10:32;98572.64;;;20.26;45.36
86602;BME280;77266;52.284;20.890;2024-03-23T14:13:05;98558.42;;;20.23;45.67
86602;BME280;77266;52.284;20.890;2024-03-23T14:15:36;98555.30;;;20.23;45.50